Terminal Aerodrome Forecast
Issued by NWS

Home | Current Version | Previous Version | Text Only | Print | Product List | Glossary On
Versions: 1 2 3 4 5 6 7 8 9 10 11 12 13
000
FTUS44 KBMX 260500
TAFEET
TAF
KEET 260532Z 2606/2706 00000KT 6SM BR SKC
     FM260800 00000KT 4SM BR SKC
     FM261300 29004KT P6SM SKC=

USA.gov is the U.S. government's official web portal to all federal, state and local government web resources and services.